Devine, Texas
Current Conditions -  °F | °C
As of 5:15 PM on Wednesday 17 Dec 2014 (Local Time) from KCVB Reporting Station
Overcast Overcast  
Wind Chill: 12°   Ceiling: 1200
Heat Index: 12°   Visibility: 7mi
Dew Point: 11°   Wind: 3mph
Humidity: 94%   Direction: 360°N
Pressure: 30.04"   Gusts: NA
Location:  29.14°N, 98.91°W
Report Text: KCVB 172315Z AUTO 36003KT 7SM OVC012 12/11 A3004 RMK AO2 T01200110
Loading
Personal Weather Stations






























Interactive Weather Map New forecast layout! Learn more

10-Day Weather Forecast

Advertisements
Track Severe Weather on mobile